Aktuální počasí v Česku a ve světě - METAR

Seznam meteostanic umístěných nejčasteji na letišti v ČR a ve světě

Vyhledat místa podle abecedy:
A B C D E F G H I J K L M N O P Q R S T U V W X Y Z

Filtrovat:

ID stanice:
a/nebo
Název místa (fulltext):
 
Místo (ID)Naposledy načteno 
Holešov (Holesov) 19.06.2021 14:00 UTC Zobrazit data
Místo: Holešov
Teplota: 31 °C (pocitová: 33.9 °C)
Vítr: 2 m/s z(e) 350°
Počasí: skorojasno
Dohlednost: 50 km
Zákl. oblačnosti: 1/8 2100 m
Vlhkost: 40%
Hamburg (EDDH) 19.06.2021 13:50 UTC Zobrazit METAR
EDDH 191350Z 29010KT 260V320 CAVOK 29/15 Q1012 NOSIG
Hannover (EDDV) 19.06.2021 12:50 UTC Zobrazit METAR
EDDV 191250Z 28006KT 220V330 CAVOK 29/13 Q1013 NOSIG
Hanoi (VVNB) 19.06.2021 14:00 UTC Zobrazit METAR
VVNB 191400Z 20006KT 170V230 CAVOK 35/21 Q0999 NOSIG
Harare (FVHA) 13.09.2018 03:00 UTC Zobrazit METAR
FVHA 130300Z 07008KT CAVOK 14/07 Q1022 NOSIG
Havana (MUHA) 19.06.2021 13:55 UTC Zobrazit METAR
MUHA 191355Z 11005KT 080V150 9000 SCT180 29/24 Q1018
Helsinki (EFHK) 19.06.2021 13:50 UTC Zobrazit METAR
EFHK 191350Z 20010KT 180V240 CAVOK 28/14 Q1017 NOSIG
Hong Kong (VHHH) 19.06.2021 14:00 UTC Zobrazit METAR
VHHH 191400Z 21010KT 9999 FEW020 31/25 Q1004 NOSIG
Honiara (AGGH) 19.06.2021 01:00 UTC Zobrazit METAR
AGGH 190100Z 05004KT 9999 FEW020 33/25 Q1010
Horta (LPHR) 19.06.2021 14:00 UTC Zobrazit METAR
LPHR 191400Z 29018KT 8000 VCSH FEW012 SCT018 22/19 Q1028
Reklama

Reklama


Newslettter

Počasí na Váš email

Emaily jsou bez reklamy a bez spamu



Odhlásit newsletter



Kontaktujte nás

Kontaktujte Slunečno.cz

Kontaktujte provozovatele Slunecno.cz

Další české internetové stránky (nejen) o počasí najdete v katalogu TOPlist - weby o počasí nebo vyhledejte na internetu, co jste tu na Počasí Slunečno Slunečnu zatím nenašli:
Přidat mezzi oblíbené stránkyPřidat Slunečno.cz do oblíbených | Nastavit jako HOMEPAGENastavit Slunečno.cz jako HOMEPAGE

Posunout stránku nahoru Posunout stránku nahoru Posunout stránku nahoru
Reklama